Time;durP1;ratioP1;P1;durP2;ratioP2;P2;SDS_P1;SDS_P2;PMS_P1;PMS_P2;Temp;Humidity;BMP_temperature;BMP_pressure;BME280_temperature;BME280_humidity;BME280_pressure;Samples;Min_cycle;Max_cycle;Signal;HPM_P1;HPM_P2
2022/12/14 00:03:19;;;;;;;13.43;9.00;;;;;;;20.46;49.29;100066.16;20866187;28;20238;-76
2022/12/14 00:13:19;;;;;;;12.48;8.65;;;;;;;20.46;49.16;100060.91;20882401;28;20442;-77
2022/12/14 00:23:20;;;;;;;11.77;8.30;;;;;;;20.45;49.36;100058.41;20878626;28;20078;-77
2022/12/14 00:33:20;;;;;;;14.43;8.63;;;;;;;20.45;49.08;100066.31;20879701;28;20070;-76
2022/12/14 00:43:22;;;;;;;11.45;8.15;;;;;;;20.44;49.11;100075.16;20864475;28;20064;-77
2022/12/14 00:53:23;;;;;;;11.88;8.65;;;;;;;20.42;48.87;100071.78;20866496;28;20044;-81
2022/12/14 01:03:23;;;;;;;11.27;8.38;;;;;;;20.41;49.13;100073.59;20877329;28;20079;-77
2022/12/14 01:13:24;;;;;;;10.52;7.82;;;;;;;20.42;49.07;100082.31;20885049;28;20040;-78
2022/12/14 01:23:24;;;;;;;10.15;7.18;;;;;;;20.40;49.08;100095.59;20854356;28;20048;-76
2022/12/14 01:33:25;;;;;;;11.43;8.02;;;;;;;20.39;48.98;100082.56;20882139;28;20044;-76
2022/12/14 01:43:45;;;;;;;9.55;7.05;;;;;;;20.37;48.90;100071.31;20862480;28;20071;-76
2022/12/14 01:53:46;;;;;;;9.95;7.00;;;;;;;20.40;48.83;100065.84;20874375;28;20839;-77
2022/12/14 02:03:52;;;;;;;10.10;7.35;;;;;;;20.36;48.65;100044.22;20867722;28;20048;-77
2022/12/14 02:13:53;;;;;;;11.27;7.10;;;;;;;20.36;49.01;100048.63;20881606;28;20090;-76
2022/12/14 02:24:31;;;;;;;9.52;6.95;;;;;;;20.36;48.97;100043.34;20887584;28;20136;-76
2022/12/14 02:34:50;;;;;;;8.13;5.90;;;;;;;20.36;48.98;100035.47;20843816;28;20032;-76
2022/12/14 02:44:54;;;;;;;8.45;6.20;;;;;;;20.34;48.73;100025.06;20890852;28;20071;-75
2022/12/14 02:55:00;;;;;;;8.45;6.22;;;;;;;20.33;49.07;100022.56;20872179;28;20075;-75
2022/12/14 03:05:01;;;;;;;8.13;6.38;;;;;;;20.32;49.05;100029.59;20887739;28;20462;-77
2022/12/14 03:15:04;;;;;;;7.85;5.75;;;;;;;20.34;48.87;100004.03;20939526;28;20033;-77
2022/12/14 03:25:11;;;;;;;8.57;6.10;;;;;;;20.33;49.10;99997.09;20893293;28;20061;-77
2022/12/14 03:35:19;;;;;;;8.90;6.30;;;;;;;20.35;48.86;100000.47;20904000;28;20047;-76
2022/12/14 03:45:28;;;;;;;8.82;6.50;;;;;;;20.33;48.92;99975.25;20888923;28;20087;-76
2022/12/14 03:55:40;;;;;;;8.20;6.03;;;;;;;20.31;48.79;99960.44;20895650;28;20089;-77
2022/12/14 04:05:52;;;;;;;8.77;6.03;;;;;;;20.30;48.65;99955.28;20913522;28;20044;-75
2022/12/14 04:26:19;;;;;;;8.25;5.80;;;;;;;20.32;48.54;99963.88;20906610;28;20049;-78
2022/12/14 04:36:26;;;;;;;7.80;5.50;;;;;;;20.33;48.74;99951.59;20912359;28;20133;-77
2022/12/14 04:46:31;;;;;;;7.03;5.38;;;;;;;20.34;48.58;99938.31;20908370;28;20465;-78
2022/12/14 04:56:48;;;;;;;7.72;5.50;;;;;;;20.34;48.74;99916.44;20894741;28;20048;-78
2022/12/14 05:07:10;;;;;;;9.18;5.47;;;;;;;20.34;48.71;99909.38;20874201;28;20099;-77
2022/12/14 05:17:11;;;;;;;7.05;5.22;;;;;;;20.48;49.37;99926.66;20894267;28;20044;-78
2022/12/14 05:27:12;;;;;;;11.70;5.85;;;;;;;20.56;49.74;99905.81;20892674;28;20048;-76
2022/12/14 05:37:12;;;;;;;17.98;5.82;;;;;;;20.66;50.00;99889.28;20896221;28;20036;-79
2022/12/14 05:47:14;;;;;;;19.70;6.38;;;;;;;20.73;49.45;99888.66;20924699;28;20049;-84
2022/12/14 05:57:14;;;;;;;23.67;6.20;;;;;;;20.80;49.58;99902.16;20906196;28;20097;-77
2022/12/14 06:07:16;;;;;;;19.55;7.68;;;;;;;20.71;48.00;99866.88;20875747;28;20041;-86
2022/12/14 06:17:17;;;;;;;22.30;8.02;;;;;;;20.59;45.86;99850.34;20915467;28;20037;-85
2022/12/14 06:27:18;;;;;;;14.45;6.88;;;;;;;20.73;46.90;99870.25;20964492;28;20055;-81
2022/12/14 06:37:18;;;;;;;15.80;6.00;;;;;;;20.84;47.81;99858.84;20900296;28;20048;-76
2022/12/14 06:47:18;;;;;;;15.32;6.32;;;;;;;20.72;46.04;99849.34;20922130;28;20041;-78
2022/12/14 06:57:20;;;;;;;12.77;5.95;;;;;;;20.82;45.96;99844.97;20937426;28;20051;-78
2022/12/14 07:07:20;;;;;;;9.15;5.35;;;;;;;20.93;47.26;99839.63;20906495;28;20064;-81
2022/12/14 07:17:21;;;;;;;11.43;5.60;;;;;;;21.03;46.83;99830.94;20937302;28;20067;-80
2022/12/14 07:27:22;;;;;;;10.27;6.15;;;;;;;21.13;46.99;99815.19;20926440;28;20072;-82
2022/12/14 07:37:23;;;;;;;11.45;6.40;;;;;;;21.15;46.86;99829.88;20924660;28;20041;-82
2022/12/14 07:47:23;;;;;;;9.68;6.15;;;;;;;21.21;46.87;99833.78;20943375;28;20045;-82
2022/12/14 07:57:24;;;;;;;8.25;5.88;;;;;;;21.26;46.21;99864.03;20959293;28;20071;-81
2022/12/14 08:07:26;;;;;;;7.47;5.38;;;;;;;21.31;46.33;99858.34;20940402;28;20041;-80
2022/12/14 08:17:26;;;;;;;7.50;5.23;;;;;;;21.34;45.89;99846.75;20948702;28;20055;-81
2022/12/14 08:27:29;;;;;;;8.77;5.07;;;;;;;21.33;45.93;99837.19;20913473;28;20051;-78
2022/12/14 08:37:29;;;;;;;;;;;;;;;21.36;46.52;99842.16;20890225;28;20045;-74
2022/12/14 08:47:30;;;;;;;9.35;4.85;;;;;;;21.31;46.04;99837.28;20894836;28;19986;-74
2022/12/14 08:57:30;;;;;;;6.85;4.68;;;;;;;21.31;45.62;99794.34;20901311;28;20118;-74
2022/12/14 09:07:31;;;;;;;5.85;4.45;;;;;;;21.25;45.38;99788.63;20913088;28;20044;-74
2022/12/14 09:17:32;;;;;;;14.10;8.40;;;;;;;21.22;45.28;99788.91;20895480;28;20059;-74
2022/12/14 09:27:33;;;;;;;11.48;7.20;;;;;;;21.17;45.23;99788.47;20904770;28;20056;-75
2022/12/14 09:37:33;;;;;;;19.05;13.43;;;;;;;21.13;44.96;99791.50;20887572;28;20040;-77
2022/12/14 09:47:48;;;;;;;11.95;8.45;;;;;;;21.09;45.19;99760.19;20894751;28;20045;-76
2022/12/14 09:58:14;;;;;;;17.08;11.75;;;;;;;21.06;44.74;99733.31;20902141;28;20418;-76
2022/12/14 10:08:22;;;;;;;19.63;13.55;;;;;;;21.01;44.44;99725.78;20900042;28;20522;-76
2022/12/14 10:18:40;;;;;;;22.00;13.00;;;;;;;20.99;44.59;99745.31;20884533;28;20124;-77
2022/12/14 10:28:41;;;;;;;24.95;17.38;;;;;;;20.95;44.48;99727.16;20884580;28;20045;-75
2022/12/14 10:38:44;;;;;;;21.77;14.45;;;;;;;20.97;44.10;99694.59;20913739;28;20052;-75
2022/12/14 10:48:59;;;;;;;21.50;14.57;;;;;;;20.98;44.16;99678.69;20910988;28;20529;-75
2022/12/14 10:59:22;;;;;;;19.30;13.00;;;;;;;20.95;43.80;99669.25;20902224;28;20040;-75
2022/12/14 11:09:23;;;;;;;21.85;14.98;;;;;;;20.92;43.71;99660.78;20874255;28;20093;-75
2022/12/14 11:19:25;;;;;;;28.42;19.80;;;;;;;20.91;44.26;99667.88;20896408;28;20048;-75
2022/12/14 11:29:35;;;;;;;19.13;13.95;;;;;;;20.93;43.47;99651.94;20908072;28;20045;-75
2022/12/14 11:39:38;;;;;;;16.08;11.65;;;;;;;20.93;44.03;99631.72;20903706;28;20045;-76
2022/12/14 11:49:39;;;;;;;;;;;;;;;20.85;44.49;99614.94;20890978;28;20072;-76
2022/12/14 11:59:53;;;;;;;15.48;11.43;;;;;;;20.87;44.15;99597.22;20897653;28;20286;-75
2022/12/14 12:09:59;;;;;;;15.25;11.27;;;;;;;20.83;44.36;99586.13;20917248;28;20198;-75
2022/12/14 12:19:59;;;;;;;16.85;11.25;;;;;;;20.84;43.88;99569.38;20904522;28;20060;-76
2022/12/14 12:30:05;;;;;;;17.23;11.57;;;;;;;20.83;43.50;99545.84;20908637;28;20102;-76
2022/12/14 12:40:26;;;;;;;15.10;11.38;;;;;;;20.91;43.42;99531.03;20917742;28;20114;-75
2022/12/14 12:50:35;;;;;;;16.98;11.82;;;;;;;20.89;42.94;99521.59;20915141;28;20084;-75
2022/12/14 13:00:39;;;;;;;17.45;12.35;;;;;;;20.90;43.62;99510.94;20912786;28;20395;-75
2022/12/14 13:10:42;;;;;;;17.33;11.88;;;;;;;20.89;42.52;99508.47;20909471;28;20096;-76
2022/12/14 13:20:43;;;;;;;16.52;11.77;;;;;;;20.87;42.85;99510.38;20886315;28;20032;-76
2022/12/14 13:30:49;;;;;;;15.90;11.93;;;;;;;20.85;43.53;99484.22;20890841;28;20549;-75
2022/12/14 13:41:47;;;;;;;20.13;11.02;;;;;;;20.90;43.51;99473.28;20918201;28;20533;-76
2022/12/14 13:51:50;;;;;;;16.80;10.65;;;;;;;20.83;43.73;99466.91;20861566;28;20506;-77
2022/12/14 14:01:53;;;;;;;20.70;11.57;;;;;;;20.82;42.70;99446.81;20891465;28;20383;-77
2022/12/14 14:12:23;;;;;;;16.70;10.63;;;;;;;20.79;43.14;99435.59;20894243;28;20054;-76
2022/12/14 14:22:26;;;;;;;15.63;9.93;;;;;;;20.75;43.06;99436.88;20907881;28;20073;-78
2022/12/14 14:32:41;;;;;;;;;;;;;;;20.77;42.82;99427.00;20918612;28;20055;-77
2022/12/14 14:42:51;;;;;;;18.88;9.65;;;;;;;20.80;43.08;99402.25;20888951;28;19921;-75
2022/12/14 14:53:23;;;;;;;16.65;9.02;;;;;;;20.70;43.36;99409.28;20901142;28;20052;-77
2022/12/14 15:03:47;;;;;;;11.83;8.77;;;;;;;20.68;43.07;99421.72;20898412;28;20131;-76
2022/12/14 15:14:14;;;;;;;12.55;8.68;;;;;;;20.62;43.27;99418.69;20893335;28;20274;-76
2022/12/14 15:24:15;;;;;;;11.98;8.23;;;;;;;20.62;43.37;99416.06;20907848;28;20522;-77
2022/12/14 15:34:18;;;;;;;13.00;8.85;;;;;;;20.70;43.65;99402.22;20914467;28;20033;-78
2022/12/14 15:44:19;;;;;;;;;;;;;;;20.61;43.45;99390.72;20916972;28;20048;-79
2022/12/14 15:54:23;;;;;;;11.90;8.48;;;;;;;20.58;43.65;99411.19;20896633;28;19995;-79
2022/12/14 16:04:26;;;;;;;12.25;8.68;;;;;;;20.52;43.86;99407.34;20905579;28;20037;-78
2022/12/14 16:14:44;;;;;;;10.35;7.65;;;;;;;20.46;43.81;99382.44;20915919;28;20060;-78
2022/12/14 16:25:07;;;;;;;10.70;8.00;;;;;;;20.55;43.06;99356.28;20917642;28;20048;-83
2022/12/14 16:35:16;;;;;;;10.37;7.83;;;;;;;20.58;44.31;99335.78;20921831;28;20033;-78
2022/12/14 16:45:53;;;;;;;20.10;8.07;;;;;;;20.56;43.76;99319.31;20915654;28;20104;-80
2022/12/14 16:56:05;;;;;;;10.95;7.50;;;;;;;20.56;43.55;99323.75;20917518;28;20037;-82
2022/12/14 17:06:20;;;;;;;10.48;7.25;;;;;;;20.54;43.74;99318.59;20949876;28;20052;-86
2022/12/14 17:16:21;;;;;;;11.50;7.32;;;;;;;20.59;44.73;99320.81;20956718;28;20127;-82
2022/12/14 17:26:25;;;;;;;11.15;7.82;;;;;;;20.60;43.37;99327.75;20938572;28;20527;-84
2022/12/14 17:36:25;;;;;;;19.75;8.07;;;;;;;20.69;44.74;99340.06;20914807;28;20135;-85
2022/12/14 17:46:28;;;;;;;22.77;10.68;;;;;;;20.69;45.61;99347.94;20892961;28;20075;-83
2022/12/14 17:56:31;;;;;;;16.00;10.40;;;;;;;20.75;46.30;99336.88;20890103;28;20100;-84
2022/12/14 18:06:31;;;;;;;17.88;10.98;;;;;;;20.80;46.53;99333.84;20890136;28;20045;-82
2022/12/14 18:16:32;;;;;;;19.45;10.88;;;;;;;20.81;46.54;99317.06;20924022;28;20064;-86
2022/12/14 18:26:34;;;;;;;16.90;10.82;;;;;;;20.72;46.08;99302.97;20896328;28;20479;-81
2022/12/14 18:36:35;;;;;;;15.73;10.73;;;;;;;20.75;46.29;99310.59;20906759;28;20037;-82
2022/12/14 18:46:38;;;;;;;19.40;12.27;;;;;;;20.70;45.72;99293.53;20903174;28;20451;-82
2022/12/14 18:56:41;;;;;;;21.95;11.15;;;;;;;20.70;46.31;99267.22;20917536;28;20038;-86
2022/12/14 19:06:42;;;;;;;20.17;11.63;;;;;;;20.71;46.73;99277.59;20931284;28;20075;-83
2022/12/14 19:16:43;;;;;;;17.15;11.10;;;;;;;20.67;46.77;99270.97;20887280;28;20063;-86
2022/12/14 19:26:45;;;;;;;14.45;10.30;;;;;;;20.62;46.96;99262.69;20911115;28;20060;-89
2022/12/14 19:36:45;;;;;;;15.70;10.90;;;;;;;20.63;47.05;99259.09;20924233;28;20064;-84
2022/12/14 19:46:47;;;;;;;14.82;10.30;;;;;;;20.64;46.87;99269.47;20918773;28;20079;-82
2022/12/14 19:56:52;;;;;;;17.25;10.55;;;;;;;20.63;46.87;99261.72;20935437;28;20039;-78
2022/12/14 20:06:54;;;;;;;14.43;10.20;;;;;;;20.61;46.45;99250.50;20876945;28;20042;-80
2022/12/14 20:16:55;;;;;;;18.80;10.30;;;;;;;20.58;46.42;99242.88;20892411;28;20057;-79
2022/12/14 20:26:59;;;;;;;28.38;9.90;;;;;;;20.60;46.87;99225.16;20874081;28;20510;-78
2022/12/14 20:37:00;;;;;;;14.98;9.80;;;;;;;20.57;46.79;99212.31;20870868;28;20618;-84
2022/12/14 20:47:00;;;;;;;20.90;11.05;;;;;;;20.46;45.73;99206.25;20895334;28;20537;-85
2022/12/14 20:57:01;;;;;;;13.65;9.60;;;;;;;20.47;46.53;99204.47;20911343;28;20537;-85
2022/12/14 21:07:03;;;;;;;12.73;9.23;;;;;;;20.47;46.69;99210.53;20918261;28;20194;-86
2022/12/14 21:17:05;;;;;;;13.70;9.10;;;;;;;20.50;47.15;99229.63;20872187;28;20049;-86
2022/12/14 21:27:07;;;;;;;13.20;8.52;;;;;;;20.48;47.39;99230.59;20896770;28;20041;-86
2022/12/14 21:37:08;;;;;;;13.37;8.73;;;;;;;20.50;47.31;99212.03;20916076;28;20049;-85
2022/12/14 21:47:11;;;;;;;12.73;8.03;;;;;;;20.48;47.34;99220.09;20919558;28;20048;-86
2022/12/14 22:07:35;;;;;;;11.82;7.60;;;;;;;20.50;47.26;99232.28;20899514;28;20072;-86
2022/12/14 22:17:35;;;;;;;10.63;7.28;;;;;;;20.49;47.48;99241.94;20890933;28;20149;-85
2022/12/14 22:27:36;;;;;;;9.88;7.40;;;;;;;20.52;47.82;99257.44;20899810;28;20052;-82
2022/12/14 22:37:36;;;;;;;10.38;7.50;;;;;;;20.53;47.20;99267.00;20898500;28;20044;-83
2022/12/14 22:47:38;;;;;;;11.70;7.63;;;;;;;20.52;47.31;99246.94;20918578;28;20052;-83
2022/12/14 22:57:42;;;;;;;10.65;7.20;;;;;;;20.54;47.48;99257.28;20913264;28;20036;-83
2022/12/14 23:07:42;;;;;;;9.15;6.55;;;;;;;20.52;47.16;99244.28;20908037;28;20088;-83
